• Join FlightAware (Why Join?)
  • Login
  • US Flag 
07:28PM EDT


 

Airport Tracker/Info


-or-


 

Live Flight TrackerFlight Track Log ✈ UPS1122 ✈ 21-Jun-2013 ✈ KPHL - KBDL

Flight Track Log - Related Links

Times and Time Zones

All times are in EDT time to prevent confusion due to time zone crossing. See the UPS1122 flight status page for this flight to view local times or setup timezone preferences in your user account.

Time Position Orientation Groundspeed Altitude Reporting Facility
EDT Latitude Longitude Course Direction KTS MPH feet Rate Location/Type
03:47AM 39.8667 -75.2667 37° Northeast 147 169 1,100  Level Philadelphia TRACON
03:48AM 39.8500 -75.3167 247° West 176 203 2,300 1,800 Climbing Philadelphia TRACON
03:49AM 39.8000 -75.3667 218° Southwest 234 269 4,600 2,280 Climbing Philadelphia TRACON
03:50AM 39.7833 -75.2833 105° East 265 305 6,900 2,520 Climbing Philadelphia TRACON
03:51AM 39.7833 -75.1667 90° East 301 346 9,900 2,040 Climbing Philadelphia TRACON
03:53AM 39.8110 -74.6724 37° Northeast  Level FlightAware Approximate
03:54AM 39.7883 -74.8611 89° East 378 435 14,000  Level New York Center
03:55AM 39.8081 -74.7136 80° East 396 456 16,200 1,920 Climbing New York Center
03:56AM 39.8881 -74.6206 42° Northeast 395 455 17,900 1,980 Climbing New York Center
03:57AM 39.9956 -74.5236 35° Northeast 395 455 20,200 1,500 Climbing New York Center
03:58AM 40.0878 -74.4364 36° Northeast 431 496 21,000 300 Climbing New York Center
03:59AM 40.1867 -74.3464 35° Northeast 438 504 20,900  Descending New York Center
04:00AM 40.2872 -74.2536 35° Northeast 443 510 21,000  Climbing New York Center
04:01AM 40.3881 -74.1608 35° Northeast 443 510 21,000  Level New York Center
04:02AM 40.4886 -74.0675 35° Northeast 443 510 21,000  Level New York Center
04:03AM 40.5869 -73.9767 35° Northeast 443 510 21,000  Level New York Center
04:04AM 40.6872 -73.8856 35° Northeast 443 510 21,000  Level New York Center
04:05AM 40.8781 -73.7111 35° Northeast 440 506 21,000  Level Boston Center
04:06AM 40.9836 -73.6003 38° Northeast 440 506 21,000 -420 Level Boston Center
04:07AM 41.0739 -73.5222 33° Northeast 435 501 20,200 -1,860 Descending Boston Center
04:08AM 41.1792 -73.4192 36° Northeast 427 491 17,300 -2,580 Descending Boston Center
04:09AM 41.2547 -73.3511 34° Northeast 427 491 15,100 -2,580 Descending Boston Center
04:11AM 41.3806 -73.2286 36° Northeast 404 465 11,700 -2,100 Descending Boston Center
04:11AM 41.4539 -73.1686 32° Northeast 391 450 11,000 -720 Descending Boston Center
04:12AM 41.5272 -73.1056 33° Northeast 329 379 10,500 -1,200 Descending Boston Center
04:13AM 41.5964 -73.0453 33° Northeast 301 346 8,700 -2,040 Descending Boston Center
04:14AM 41.6614 -72.9903 32° Northeast 280 322 6,500 -2,220 Descending Boston Center
04:15AM 41.7242 -72.9353 33° Northeast 273 314 4,300 -2,040 Descending Boston Center
04:16AM 41.7869 -72.8828 32° Northeast 273 314 2,500 -900 Descending Boston Center
04:17AM 41.8369 -72.8247 41° Northeast 251 289 2,500 -300 Level Boston Center
04:18AM 41.8706 -72.7775 46° Northeast 211 243 1,900 -720 Descending Boston Center
04:19AM 41.9019 -72.7386 43° Northeast 170 196 1,100 -720 Descending Boston Center
04:20AM 41.9250 -72.7108 42° Northeast 154 177 500 -600 Descending Boston Center
04:25AM 41.9333 -72.6833 29° Northeast  Level FlightAware Approximate
04:32AM 41.9392 -72.6834 29° Northeast  Level Estimated
04:33AM 41.9333 -72.6833 29° Northeast  Level FlightAware Approximate
04:34AM 41.9392 -72.6834 29° Northeast  Level Estimated
04:35AM 41.9333 -72.6833 29° Northeast  Level FlightAware Approximate